createdAt,value
2018-11-11T00:00:14.078Z,80.39
2018-11-11T00:02:43.117Z,80.57
2018-11-11T00:05:12.262Z,80.30
2018-11-11T00:07:41.310Z,80.20
2018-11-11T00:10:10.008Z,81.07
2018-11-11T00:12:39.538Z,80.44
2018-11-11T00:15:11.795Z,80.18
2018-11-11T00:17:41.671Z,80.05
2018-11-11T00:20:11.393Z,79.91
2018-11-11T00:22:40.494Z,80.71
2018-11-11T00:25:09.866Z,80.64
2018-11-11T00:27:39.451Z,80.89
2018-11-11T00:30:10.396Z,80.83
2018-11-11T00:32:39.251Z,80.54
2018-11-11T00:35:08.397Z,80.77
2018-11-11T00:37:37.223Z,81.19
2018-11-11T00:40:06.150Z,80.87
2018-11-11T00:42:35.327Z,80.48
2018-11-11T00:45:04.219Z,80.10
2018-11-11T00:47:33.045Z,79.73
2018-11-11T00:50:02.105Z,79.45
2018-11-11T00:52:31.082Z,79.81
2018-11-11T00:55:00.181Z,80.46
2018-11-11T00:57:29.430Z,80.78
2018-11-11T00:59:58.060Z,81.20
2018-11-11T01:02:27.074Z,80.82
2018-11-11T01:04:55.812Z,80.42
2018-11-11T01:07:24.582Z,80.01
2018-11-11T01:09:53.339Z,80.06
2018-11-11T01:12:22.271Z,80.28
2018-11-11T01:14:50.992Z,80.03
2018-11-11T01:17:20.244Z,79.62
2018-11-11T01:19:49.164Z,79.98
2018-11-11T01:22:18.276Z,79.61
2018-11-11T01:24:47.142Z,79.51
2018-11-11T01:27:15.941Z,81.07
2018-11-11T01:29:44.717Z,81.09
2018-11-11T01:32:13.553Z,81.05
2018-11-11T01:34:42.330Z,80.80
2018-11-11T01:37:11.040Z,79.85
2018-11-11T01:39:39.720Z,79.23
2018-11-11T01:42:08.769Z,79.23
2018-11-11T01:44:37.694Z,79.38
2018-11-11T01:47:06.582Z,79.23
2018-11-11T01:49:35.705Z,79.76
2018-11-11T01:52:04.813Z,80.60
2018-11-11T01:54:33.525Z,80.69
2018-11-11T01:57:02.280Z,81.56
2018-11-11T01:59:31.124Z,81.88
2018-11-11T02:01:59.906Z,81.67
2018-11-11T02:04:28.553Z,82.34
2018-11-11T02:06:57.321Z,82.93
2018-11-11T02:09:26.010Z,83.07
2018-11-11T02:11:54.945Z,83.30
2018-11-11T02:14:24.036Z,83.42
2018-11-11T02:16:52.945Z,82.89
2018-11-11T02:19:21.839Z,81.86
2018-11-11T02:21:50.718Z,82.05
2018-11-11T02:24:19.715Z,82.43
2018-11-11T02:26:48.773Z,83.08
2018-11-11T02:29:17.476Z,83.44
2018-11-11T02:31:46.061Z,83.77
2018-11-11T02:34:15.082Z,83.70
2018-11-11T02:36:43.815Z,83.61
2018-11-11T02:39:12.511Z,83.47
2018-11-11T02:41:41.266Z,83.65
2018-11-11T02:44:10.242Z,83.50
2018-11-11T02:46:39.226Z,83.20
2018-11-11T02:49:08.243Z,83.15
2018-11-11T02:51:37.099Z,83.82
2018-11-11T02:54:06.060Z,83.90
2018-11-11T02:56:34.945Z,83.80
2018-11-11T02:59:03.801Z,83.75
2018-11-11T03:01:32.519Z,83.46
2018-11-11T03:04:01.745Z,83.37
2018-11-11T03:06:30.622Z,83.30
2018-11-11T03:08:59.357Z,82.88
2018-11-11T03:11:28.443Z,82.66
2018-11-11T03:13:57.142Z,81.97
2018-11-11T03:16:26.191Z,81.71
2018-11-11T03:18:55.127Z,82.22
2018-11-11T03:21:24.270Z,82.00
2018-11-11T03:23:53.110Z,82.39
2018-11-11T03:26:22.167Z,83.04
2018-11-11T03:28:51.232Z,83.54
2018-11-11T03:31:20.128Z,83.94
2018-11-11T03:33:48.891Z,82.94
2018-11-11T03:36:17.605Z,82.13
2018-11-11T03:38:46.540Z,82.80
2018-11-11T03:41:15.458Z,83.14
2018-11-11T03:43:44.566Z,83.79
2018-11-11T03:46:13.490Z,84.17
2018-11-11T03:48:42.199Z,84.17
2018-11-11T03:51:11.018Z,84.65
2018-11-11T03:53:40.177Z,84.50
2018-11-11T03:56:09.101Z,84.61
2018-11-11T03:58:38.374Z,85.09
2018-11-11T04:01:07.829Z,84.43
2018-11-11T04:03:36.484Z,84.58
2018-11-11T04:06:05.074Z,84.45
2018-11-11T04:08:33.816Z,84.25
2018-11-11T04:11:02.807Z,84.24
2018-11-11T04:13:31.903Z,84.32
2018-11-11T04:16:01.029Z,84.58
2018-11-11T04:18:30.011Z,84.84
2018-11-11T04:20:59.059Z,84.46
2018-11-11T04:23:27.948Z,84.29
2018-11-11T04:25:56.688Z,83.76
2018-11-11T04:28:25.678Z,84.19
2018-11-11T04:30:54.598Z,84.79
2018-11-11T04:33:23.206Z,84.88
2018-11-11T04:35:51.967Z,85.35
2018-11-11T04:38:20.630Z,85.42
2018-11-11T04:40:49.566Z,84.80
2018-11-11T04:43:18.877Z,84.89
2018-11-11T04:45:47.810Z,85.21
2018-11-11T04:48:16.713Z,85.02
2018-11-11T04:50:45.765Z,84.92
2018-11-11T04:53:14.685Z,85.10
2018-11-11T04:55:43.592Z,85.79
2018-11-11T04:58:12.234Z,86.24
2018-11-11T05:00:41.191Z,86.20
2018-11-11T05:03:09.874Z,85.74
2018-11-11T05:05:38.534Z,86.14
2018-11-11T05:08:07.210Z,86.27
2018-11-11T05:10:36.063Z,86.07
2018-11-11T05:13:05.161Z,85.67
2018-11-11T05:15:34.146Z,85.97
2018-11-11T05:18:02.996Z,86.46
2018-11-11T05:20:31.930Z,86.78
2018-11-11T05:23:00.686Z,86.56
2018-11-11T05:25:29.658Z,86.31
2018-11-11T05:27:58.684Z,86.05
2018-11-11T05:30:27.695Z,85.77
2018-11-11T05:32:56.537Z,85.98
2018-11-11T05:35:25.357Z,85.84
2018-11-11T05:37:53.965Z,85.97
2018-11-11T05:40:23.059Z,85.73
2018-11-11T05:42:54.670Z,85.74
2018-11-11T05:45:24.505Z,85.73
2018-11-11T05:47:53.467Z,85.22
2018-11-11T05:50:22.380Z,84.64
2018-11-11T05:52:51.155Z,84.23
2018-11-11T05:55:20.059Z,83.79
2018-11-11T05:57:49.128Z,83.53
2018-11-11T06:00:18.662Z,83.44
2018-11-11T06:02:47.347Z,83.45
2018-11-11T06:05:16.562Z,83.54
2018-11-11T06:07:45.311Z,83.32
2018-11-11T06:10:15.150Z,82.46
2018-11-11T06:12:44.189Z,81.95
2018-11-11T06:15:13.622Z,82.09
2018-11-11T06:17:42.591Z,81.59
2018-11-11T06:20:14.269Z,81.19
2018-11-11T06:22:43.438Z,80.85
2018-11-11T06:25:12.611Z,80.33
2018-11-11T06:27:41.315Z,79.60
2018-11-11T06:30:11.027Z,79.40
2018-11-11T06:32:39.861Z,78.99
2018-11-11T06:35:08.577Z,78.24
2018-11-11T06:37:37.304Z,77.83
2018-11-11T06:40:07.972Z,76.40
2018-11-11T06:42:36.873Z,75.85
2018-11-11T06:45:07.184Z,75.14
2018-11-11T06:47:36.338Z,75.18
2018-11-11T06:50:06.024Z,75.40
2018-11-11T06:52:34.760Z,75.56
2018-11-11T06:55:03.638Z,74.88
2018-11-11T06:57:32.735Z,74.80
2018-11-11T07:00:01.829Z,74.26
2018-11-11T07:02:36.936Z,73.86
2018-11-11T07:05:06.906Z,73.56
2018-11-11T07:07:35.834Z,73.38
2018-11-11T07:10:05.043Z,72.97
2018-11-11T07:12:33.707Z,72.30
2018-11-11T07:15:02.457Z,72.06
2018-11-11T07:17:31.326Z,71.64
2018-11-11T07:20:00.288Z,71.19
2018-11-11T07:22:29.118Z,71.38
2018-11-11T07:24:58.118Z,71.26
2018-11-11T07:27:27.064Z,70.31
2018-11-11T07:29:55.687Z,70.01
2018-11-11T07:32:24.410Z,68.55
2018-11-11T07:34:53.275Z,67.94
2018-11-11T07:37:22.032Z,68.02
2018-11-11T07:39:50.839Z,68.23
2018-11-11T07:42:19.755Z,67.16
2018-11-11T07:44:48.602Z,66.58
2018-11-11T07:47:17.678Z,66.09
2018-11-11T07:49:46.581Z,65.80
2018-11-11T07:52:15.452Z,65.64
2018-11-11T07:54:44.657Z,63.69
2018-11-11T07:57:13.798Z,62.80
2018-11-11T07:59:42.903Z,62.52
2018-11-11T08:02:11.689Z,62.47
2018-11-11T08:04:40.358Z,61.62
2018-11-11T08:07:09.250Z,61.79
2018-11-11T08:09:38.058Z,60.65
2018-11-11T08:12:07.584Z,59.21
2018-11-11T08:14:36.568Z,58.73
2018-11-11T08:17:05.868Z,59.04
2018-11-11T08:19:34.915Z,59.18
2018-11-11T08:22:03.797Z,59.80
2018-11-11T08:24:32.791Z,59.68
2018-11-11T08:27:02.134Z,59.81
2018-11-11T08:29:30.995Z,59.24
2018-11-11T08:31:59.672Z,58.72
2018-11-11T08:34:28.431Z,58.68
2018-11-11T08:36:57.094Z,57.72
2018-11-11T08:39:25.770Z,57.68
2018-11-11T08:41:54.646Z,56.55
2018-11-11T08:44:23.524Z,55.89
2018-11-11T08:46:52.423Z,55.17
2018-11-11T08:49:21.353Z,54.66
2018-11-11T08:51:50.185Z,52.80
2018-11-11T08:54:19.189Z,51.44
2018-11-11T08:56:48.133Z,50.60
2018-11-11T08:59:16.942Z,47.17
2018-11-11T09:01:45.710Z,46.45
2018-11-11T09:04:14.386Z,44.83
2018-11-11T09:06:43.049Z,43.96
2018-11-11T09:09:12.035Z,44.38
2018-11-11T09:11:41.340Z,43.51
2018-11-11T09:14:10.142Z,41.37
2018-11-11T09:16:39.143Z,40.70
2018-11-11T09:19:08.088Z,40.69
2018-11-11T09:21:37.016Z,39.80
2018-11-11T09:24:06.329Z,39.79
2018-11-11T09:26:35.233Z,39.25
2018-11-11T09:29:04.971Z,39.62
2018-11-11T09:31:33.998Z,40.26
2018-11-11T09:34:02.743Z,40.25
2018-11-11T09:36:31.502Z,38.21
2018-11-11T09:39:01.250Z,38.61
2018-11-11T09:41:30.494Z,39.31
2018-11-11T09:43:59.582Z,37.27
2018-11-11T09:46:28.622Z,37.68
2018-11-11T09:48:57.467Z,36.70
2018-11-11T09:51:26.758Z,36.69
2018-11-11T09:53:55.607Z,35.74
2018-11-11T09:56:24.542Z,35.39
2018-11-11T09:58:53.443Z,35.62
2018-11-11T10:01:22.685Z,34.44
2018-11-11T10:04:56.997Z,34.94
2018-11-11T10:07:35.876Z,35.06
2018-11-11T10:10:12.028Z,34.06
2018-11-11T10:12:46.946Z,34.84
2018-11-11T10:15:23.514Z,33.34
2018-11-11T10:17:57.754Z,33.86
2018-11-11T10:20:31.723Z,33.44
2018-11-11T10:23:35.351Z,33.09
2018-11-11T10:26:07.850Z,33.76
2018-11-11T10:28:41.242Z,34.61
2018-11-11T10:31:20.102Z,33.52
2018-11-11T10:33:59.455Z,33.48
2018-11-11T10:36:34.256Z,32.60
2018-11-11T10:39:10.019Z,32.29
2018-11-11T10:41:44.141Z,32.05
2018-11-11T10:44:20.050Z,33.23
2018-11-11T10:46:53.904Z,32.71
2018-11-11T10:49:27.697Z,31.68
2018-11-11T10:51:56.639Z,31.39
2018-11-11T10:54:25.510Z,31.92
2018-11-11T10:56:54.243Z,32.36
2018-11-11T10:59:23.060Z,31.39
2018-11-11T11:02:59.133Z,31.45
2018-11-11T11:05:27.876Z,31.35
2018-11-11T11:07:56.846Z,31.68
2018-11-11T11:10:25.784Z,31.85
2018-11-11T11:12:55.038Z,31.43
2018-11-11T11:15:23.993Z,31.66
2018-11-11T11:17:52.779Z,30.93
2018-11-11T11:20:21.716Z,30.58
2018-11-11T11:22:50.888Z,30.51
2018-11-11T11:25:19.959Z,30.02
2018-11-11T11:27:49.142Z,29.62
2018-11-11T11:30:18.266Z,29.15
2018-11-11T11:32:46.976Z,29.01
2018-11-11T11:35:15.783Z,28.87
2018-11-11T11:37:44.742Z,28.95
2018-11-11T11:40:13.614Z,28.40
2018-11-11T11:42:42.512Z,27.86
2018-11-11T11:45:12.318Z,28.25
2018-11-11T11:47:41.939Z,27.63
2018-11-11T11:50:12.399Z,27.78
2018-11-11T11:52:42.136Z,27.89
2018-11-11T11:55:11.723Z,26.58
2018-11-11T11:57:40.885Z,26.66
2018-11-11T12:00:11.939Z,26.81
2018-11-11T12:02:40.996Z,27.00
2018-11-11T12:05:10.271Z,27.14
2018-11-11T12:07:39.250Z,27.86
2018-11-11T12:10:09.746Z,28.04
2018-11-11T12:12:39.467Z,27.64
2018-11-11T12:15:09.523Z,27.07
2018-11-11T12:17:38.552Z,26.63
2018-11-11T12:20:07.895Z,27.42
2018-11-11T12:22:36.617Z,28.26
2018-11-11T12:25:06.267Z,27.32
2018-11-11T12:27:35.156Z,28.56
2018-11-11T12:30:04.346Z,27.82
2018-11-11T12:32:33.251Z,27.72
2018-11-11T12:35:01.956Z,27.83
2018-11-11T12:37:30.627Z,27.05
2018-11-11T12:39:59.701Z,27.10
2018-11-11T12:42:28.292Z,27.34
2018-11-11T12:44:57.276Z,26.76
2018-11-11T12:47:26.538Z,25.59
2018-11-11T12:49:55.694Z,25.79
2018-11-11T12:52:24.469Z,25.40
2018-11-11T12:54:53.349Z,26.40
2018-11-11T12:57:22.576Z,26.22
2018-11-11T12:59:51.451Z,25.86
2018-11-11T13:02:20.242Z,25.41
2018-11-11T13:04:49.126Z,25.79
2018-11-11T13:07:17.753Z,25.12
2018-11-11T13:09:46.511Z,25.26
2018-11-11T13:12:15.400Z,25.25
2018-11-11T13:14:44.150Z,24.28
2018-11-11T13:17:13.238Z,24.40
2018-11-11T13:19:42.036Z,24.30
2018-11-11T13:22:11.036Z,24.41
2018-11-11T13:24:39.767Z,24.03
2018-11-11T13:27:09.454Z,24.09
2018-11-11T13:29:38.493Z,23.96
2018-11-11T13:32:07.365Z,24.08
2018-11-11T13:34:36.387Z,23.85
2018-11-11T13:37:05.142Z,23.69
2018-11-11T13:39:34.285Z,24.16
2018-11-11T13:42:03.237Z,24.06
2018-11-11T13:44:32.160Z,23.23
2018-11-11T13:47:01.583Z,22.97
2018-11-11T13:49:30.526Z,23.52
2018-11-11T13:51:59.342Z,23.09
2018-11-11T13:54:28.306Z,23.11
2018-11-11T13:56:57.027Z,23.12
2018-11-11T13:59:26.096Z,23.04
2018-11-11T14:01:55.174Z,23.09
2018-11-11T14:04:23.901Z,23.78
2018-11-11T14:09:20.515Z,23.90
2018-11-11T14:11:49.378Z,23.41
2018-11-11T14:14:18.522Z,23.56
2018-11-11T14:16:47.503Z,23.72
2018-11-11T14:19:16.704Z,25.02
2018-11-11T14:21:45.498Z,25.01
2018-11-11T14:24:14.231Z,27.03
2018-11-11T14:26:43.671Z,26.55
2018-11-11T14:29:12.411Z,27.67
2018-11-11T14:31:41.382Z,28.02
2018-11-11T14:34:10.062Z,28.60
2018-11-11T14:36:38.810Z,29.48
2018-11-11T14:39:11.062Z,29.78
2018-11-11T14:41:40.725Z,30.96
2018-11-11T14:44:09.767Z,32.56
2018-11-11T14:46:39.200Z,34.66
2018-11-11T14:49:08.850Z,37.41
2018-11-11T14:51:37.938Z,38.14
2018-11-11T14:54:07.085Z,40.10
2018-11-11T14:56:36.014Z,41.76
2018-11-11T14:59:05.234Z,42.72
2018-11-11T15:01:34.158Z,44.42
2018-11-11T15:04:03.325Z,45.14
2018-11-11T15:06:32.182Z,45.93
2018-11-11T15:09:00.927Z,46.96
2018-11-11T15:11:30.197Z,48.74
2018-11-11T15:13:59.008Z,49.87
2018-11-11T15:16:28.018Z,51.62
2018-11-11T15:18:57.601Z,52.36
2018-11-11T15:21:26.730Z,52.74
2018-11-11T15:23:55.621Z,52.65
2018-11-11T15:26:24.535Z,53.64
2018-11-11T15:28:53.447Z,54.17
2018-11-11T15:31:22.344Z,54.12
2018-11-11T15:33:51.083Z,54.66
2018-11-11T15:36:20.162Z,54.33
2018-11-11T15:38:48.962Z,54.43
2018-11-11T15:41:18.068Z,55.83
2018-11-11T15:43:46.992Z,56.44
2018-11-11T15:46:15.850Z,57.27
2018-11-11T15:48:44.745Z,58.08
2018-11-11T15:51:13.524Z,58.61
2018-11-11T15:53:42.697Z,58.73
2018-11-11T15:56:11.505Z,59.18
2018-11-11T15:58:40.453Z,59.56
2018-11-11T16:01:09.285Z,59.70
2018-11-11T16:03:38.277Z,60.25
2018-11-11T16:06:07.531Z,61.00
2018-11-11T16:08:36.275Z,61.21
2018-11-11T16:11:05.814Z,61.43
2018-11-11T16:13:35.085Z,61.63
2018-11-11T16:16:03.787Z,62.04
2018-11-11T16:18:33.624Z,62.16
2018-11-11T16:21:02.988Z,62.51
2018-11-11T16:23:32.141Z,62.80
2018-11-11T16:26:01.173Z,63.11
2018-11-11T16:28:29.906Z,62.58
2018-11-11T16:30:58.694Z,62.25
2018-11-11T16:33:27.575Z,62.36
2018-11-11T16:35:56.357Z,63.17
2018-11-11T16:38:25.189Z,63.36
2018-11-11T16:40:54.067Z,63.61
2018-11-11T16:43:23.078Z,63.95
2018-11-11T16:45:51.775Z,63.72
2018-11-11T16:48:20.864Z,63.69
2018-11-11T16:50:50.649Z,63.36
2018-11-11T16:53:19.740Z,63.09
2018-11-11T16:55:48.986Z,62.95
2018-11-11T16:58:17.838Z,63.15
2018-11-11T17:00:46.614Z,63.36
2018-11-11T17:03:15.295Z,63.37
2018-11-11T17:05:44.202Z,62.49
2018-11-11T17:08:12.959Z,63.09
2018-11-11T17:10:41.893Z,62.74
2018-11-11T17:13:12.025Z,62.37
2018-11-11T17:15:40.953Z,62.46
2018-11-11T17:18:09.837Z,61.31
2018-11-11T17:20:38.907Z,61.01
2018-11-11T17:23:08.507Z,59.97
2018-11-11T17:25:37.439Z,59.58
2018-11-11T17:28:06.836Z,59.58
2018-11-11T17:30:35.614Z,60.01
2018-11-11T17:33:04.708Z,60.61
2018-11-11T17:35:33.723Z,61.35
2018-11-11T17:38:02.675Z,61.59
2018-11-11T17:40:32.025Z,61.78
2018-11-11T17:43:01.723Z,61.51
2018-11-11T17:45:30.818Z,61.89
2018-11-11T17:47:59.962Z,64.03
2018-11-11T17:50:30.158Z,62.55
2018-11-11T17:53:00.163Z,63.56
2018-11-11T17:55:29.829Z,63.36
2018-11-11T17:57:58.971Z,64.69
2018-11-11T18:00:28.920Z,66.08
2018-11-11T18:02:58.294Z,66.76
2018-11-11T18:05:28.375Z,67.77
2018-11-11T18:07:57.180Z,68.30
2018-11-11T18:10:26.715Z,68.57
2018-11-11T18:12:55.607Z,68.81
2018-11-11T18:15:27.097Z,68.81
2018-11-11T18:17:55.749Z,69.05
2018-11-11T18:20:26.921Z,68.75
2018-11-11T18:22:56.334Z,67.56
2018-11-11T18:25:25.164Z,67.79
2018-11-11T18:27:53.898Z,67.82
2018-11-11T18:30:25.347Z,66.80
2018-11-11T18:32:54.094Z,66.83
2018-11-11T18:35:29.662Z,68.28
2018-11-11T18:37:58.902Z,68.93
2018-11-11T18:40:28.919Z,69.34
2018-11-11T18:42:57.854Z,70.37
2018-11-11T18:45:28.070Z,70.50
2018-11-11T18:47:57.284Z,69.59
2018-11-11T18:50:27.531Z,69.89
2018-11-11T18:52:56.357Z,70.45
2018-11-11T18:55:25.382Z,70.35
2018-11-11T18:57:54.074Z,70.51
2018-11-11T19:00:24.402Z,70.49
2018-11-11T19:02:54.009Z,69.93
2018-11-11T19:05:23.418Z,69.88
2018-11-11T19:07:52.364Z,69.03
2018-11-11T19:10:29.173Z,67.97
2018-11-11T19:12:59.709Z,67.72
2018-11-11T19:15:28.759Z,68.17
2018-11-11T19:17:57.694Z,68.29
2018-11-11T19:20:27.117Z,68.01
2018-11-11T19:22:55.958Z,69.00
2018-11-11T19:25:26.257Z,70.11
2018-11-11T19:27:55.546Z,69.82
2018-11-11T19:30:25.652Z,70.94
2018-11-11T19:32:54.645Z,71.39
2018-11-11T19:35:23.430Z,71.24
2018-11-11T19:37:53.404Z,70.71
2018-11-11T19:40:23.466Z,70.48
2018-11-11T19:42:53.132Z,71.32
2018-11-11T19:45:23.355Z,72.11
2018-11-11T19:47:52.210Z,72.46
2018-11-11T19:50:22.294Z,72.25
2018-11-11T19:52:52.526Z,71.83
2018-11-11T19:55:21.892Z,72.02
2018-11-11T19:57:51.518Z,72.13
2018-11-11T20:00:23.340Z,71.84
2018-11-11T20:02:52.741Z,71.86
2018-11-11T20:05:22.192Z,71.77
2018-11-11T20:07:52.162Z,72.21
2018-11-11T20:10:21.630Z,72.99
2018-11-11T20:12:50.825Z,73.16
2018-11-11T20:15:23.045Z,72.80
2018-11-11T20:17:52.027Z,73.42
2018-11-11T20:20:23.291Z,74.19
2018-11-11T20:22:52.333Z,74.66
2018-11-11T20:25:21.739Z,75.09
2018-11-11T20:27:50.594Z,74.82
2018-11-11T20:30:25.055Z,74.68
2018-11-11T20:32:53.879Z,74.54
2018-11-11T20:35:24.243Z,74.94
2018-11-11T20:37:53.133Z,75.31
2018-11-11T20:40:23.023Z,74.97
2018-11-11T20:42:52.239Z,74.49
2018-11-11T20:45:22.498Z,74.25
2018-11-11T20:47:52.166Z,74.01
2018-11-11T20:50:22.336Z,73.85
2018-11-11T20:52:52.867Z,74.11
2018-11-11T20:55:22.229Z,74.46
2018-11-11T20:57:51.655Z,74.19
2018-11-11T21:00:21.819Z,73.62
2018-11-11T21:02:50.759Z,73.14
2018-11-11T21:05:21.374Z,73.24
2018-11-11T21:07:50.447Z,73.23
2018-11-11T21:10:20.674Z,73.21
2018-11-11T21:12:49.355Z,73.52
2018-11-11T21:15:19.747Z,74.26
2018-11-11T21:17:49.308Z,74.29
2018-11-11T21:20:19.920Z,75.66
2018-11-11T21:22:48.787Z,76.62
2018-11-11T21:25:17.569Z,77.25
2018-11-11T21:27:47.105Z,78.27
2018-11-11T21:30:17.455Z,78.00
2018-11-11T21:32:46.367Z,77.96
2018-11-11T21:35:15.447Z,77.78
2018-11-11T21:37:44.531Z,78.01
2018-11-11T21:40:15.362Z,78.13
2018-11-11T21:42:45.537Z,78.82
2018-11-11T21:45:15.970Z,79.81
2018-11-11T21:47:45.129Z,80.48
2018-11-11T21:50:17.511Z,80.74
2018-11-11T21:53:49.883Z,80.05
2018-11-11T21:56:19.331Z,80.25
2018-11-11T21:58:48.043Z,80.17
2018-11-11T22:01:16.698Z,79.98
2018-11-11T22:03:45.544Z,79.38
2018-11-11T22:06:14.526Z,79.13
2018-11-11T22:08:43.567Z,79.11
2018-11-11T22:11:12.847Z,79.18
2018-11-11T22:13:42.003Z,79.03
2018-11-11T22:16:10.919Z,78.72
2018-11-11T22:18:40.739Z,77.96
2018-11-11T22:21:09.528Z,77.51
2018-11-11T22:23:38.353Z,77.69
2018-11-11T22:26:07.462Z,77.27
2018-11-11T22:28:36.117Z,76.89
2018-11-11T22:31:04.694Z,76.86
2018-11-11T22:33:33.450Z,77.81
2018-11-11T22:36:02.161Z,77.93
2018-11-11T22:38:31.045Z,79.28
2018-11-11T22:41:00.260Z,79.97
2018-11-11T22:43:29.140Z,80.84
2018-11-11T22:45:58.086Z,79.90
2018-11-11T22:48:27.446Z,79.12
2018-11-11T22:50:56.428Z,79.81
2018-11-11T22:53:25.125Z,80.94
2018-11-11T22:55:54.521Z,80.80
2018-11-11T22:58:23.327Z,80.46
2018-11-11T23:00:57.401Z,79.82
2018-11-11T23:03:26.387Z,78.99
2018-11-11T23:05:55.382Z,78.40
2018-11-11T23:08:24.443Z,77.94
2018-11-11T23:10:53.919Z,76.93
2018-11-11T23:13:22.994Z,77.32
2018-11-11T23:15:52.282Z,76.82
2018-11-11T23:18:21.137Z,76.55
2018-11-11T23:20:50.092Z,76.19
2018-11-11T23:23:19.378Z,76.24
2018-11-11T23:25:48.484Z,76.11
2018-11-11T23:28:17.289Z,75.16
2018-11-11T23:30:46.254Z,74.83
2018-11-11T23:33:15.207Z,75.21
2018-11-11T23:35:44.202Z,74.94
2018-11-11T23:38:13.145Z,74.84
2018-11-11T23:40:41.778Z,75.12
2018-11-11T23:43:10.509Z,74.96
2018-11-11T23:45:39.717Z,75.55
2018-11-11T23:48:08.597Z,76.38
2018-11-11T23:50:37.510Z,77.07
2018-11-11T23:53:06.714Z,76.90
2018-11-11T23:55:35.696Z,76.70
2018-11-11T23:58:04.470Z,77.04
